sensor_id;sensor_type;location;lat;lon;timestamp;P1;durP1;ratioP1;P2;durP2;ratioP2
29478;SDS011;16437;41.836;23.480;2022-08-19T00:02:44;4.40;;;4.00;;
29478;SDS011;16437;41.836;23.480;2022-08-19T00:08:11;6.40;;;4.28;;
29478;SDS011;16437;41.836;23.480;2022-08-19T00:13:37;4.50;;;4.00;;
29478;SDS011;16437;41.836;23.480;2022-08-19T00:19:05;4.37;;;3.85;;
29478;SDS011;16437;41.836;23.480;2022-08-19T00:24:31;4.55;;;4.00;;
29478;SDS011;16437;41.836;23.480;2022-08-19T00:29:58;4.25;;;3.85;;
29478;SDS011;16437;41.836;23.480;2022-08-19T00:35:26;4.87;;;4.00;;
29478;SDS011;16437;41.836;23.480;2022-08-19T00:40:53;4.72;;;4.33;;
29478;SDS011;16437;41.836;23.480;2022-08-19T00:46:21;4.95;;;4.37;;
29478;SDS011;16437;41.836;23.480;2022-08-19T00:51:48;5.78;;;4.42;;
29478;SDS011;16437;41.836;23.480;2022-08-19T00:57:17;5.12;;;4.62;;
29478;SDS011;16437;41.836;23.480;2022-08-19T01:02:46;6.08;;;4.30;;
29478;SDS011;16437;41.836;23.480;2022-08-19T01:08:13;5.20;;;4.12;;
29478;SDS011;16437;41.836;23.480;2022-08-19T01:13:41;4.60;;;4.20;;
29478;SDS011;16437;41.836;23.480;2022-08-19T01:19:15;4.45;;;3.98;;
29478;SDS011;16437;41.836;23.480;2022-08-19T01:24:46;6.50;;;4.20;;
29478;SDS011;16437;41.836;23.480;2022-08-19T01:30:15;4.90;;;4.25;;
29478;SDS011;16437;41.836;23.480;2022-08-19T01:35:47;5.83;;;4.30;;
29478;SDS011;16437;41.836;23.480;2022-08-19T01:41:17;5.47;;;4.93;;
29478;SDS011;16437;41.836;23.480;2022-08-19T01:46:44;5.35;;;4.60;;
29478;SDS011;16437;41.836;23.480;2022-08-19T01:52:11;6.08;;;4.42;;
29478;SDS011;16437;41.836;23.480;2022-08-19T01:57:38;7.08;;;4.62;;
29478;SDS011;16437;41.836;23.480;2022-08-19T02:03:07;6.05;;;4.78;;
29478;SDS011;16437;41.836;23.480;2022-08-19T02:08:36;5.45;;;4.40;;
29478;SDS011;16437;41.836;23.480;2022-08-19T02:14:05;5.45;;;4.70;;
29478;SDS011;16437;41.836;23.480;2022-08-19T02:19:33;5.50;;;4.40;;
29478;SDS011;16437;41.836;23.480;2022-08-19T02:24:59;5.78;;;4.83;;
29478;SDS011;16437;41.836;23.480;2022-08-19T02:30:25;5.53;;;4.35;;
29478;SDS011;16437;41.836;23.480;2022-08-19T02:35:52;5.92;;;4.70;;
29478;SDS011;16437;41.836;23.480;2022-08-19T02:41:20;4.90;;;4.42;;
29478;SDS011;16437;41.836;23.480;2022-08-19T02:46:48;5.37;;;4.62;;
29478;SDS011;16437;41.836;23.480;2022-08-19T02:52:14;6.05;;;4.78;;
29478;SDS011;16437;41.836;23.480;2022-08-19T02:57:42;7.08;;;4.90;;
29478;SDS011;16437;41.836;23.480;2022-08-19T03:03:09;7.58;;;5.00;;
29478;SDS011;16437;41.836;23.480;2022-08-19T03:08:36;8.63;;;5.40;;
29478;SDS011;16437;41.836;23.480;2022-08-19T03:14:03;9.75;;;5.47;;
29478;SDS011;16437;41.836;23.480;2022-08-19T03:19:30;8.78;;;5.30;;
29478;SDS011;16437;41.836;23.480;2022-08-19T03:24:58;8.43;;;5.10;;
29478;SDS011;16437;41.836;23.480;2022-08-19T03:30:24;8.13;;;5.17;;
29478;SDS011;16437;41.836;23.480;2022-08-19T03:36:05;6.50;;;5.03;;
29478;SDS011;16437;41.836;23.480;2022-08-19T03:41:35;7.50;;;5.55;;
29478;SDS011;16437;41.836;23.480;2022-08-19T03:47:05;6.10;;;5.05;;
29478;SDS011;16437;41.836;23.480;2022-08-19T03:52:31;7.55;;;4.92;;
29478;SDS011;16437;41.836;23.480;2022-08-19T03:57:57;6.65;;;4.97;;
29478;SDS011;16437;41.836;23.480;2022-08-19T04:03:24;6.75;;;4.92;;
29478;SDS011;16437;41.836;23.480;2022-08-19T04:08:52;6.90;;;5.28;;
29478;SDS011;16437;41.836;23.480;2022-08-19T04:14:20;6.33;;;5.10;;
29478;SDS011;16437;41.836;23.480;2022-08-19T04:19:49;7.00;;;5.10;;
29478;SDS011;16437;41.836;23.480;2022-08-19T04:25:15;7.28;;;5.30;;
29478;SDS011;16437;41.836;23.480;2022-08-19T04:30:42;6.25;;;5.08;;
29478;SDS011;16437;41.836;23.480;2022-08-19T04:36:18;7.17;;;5.33;;
29478;SDS011;16437;41.836;23.480;2022-08-19T04:41:47;6.87;;;5.25;;
29478;SDS011;16437;41.836;23.480;2022-08-19T04:47:31;7.58;;;5.40;;
29478;SDS011;16437;41.836;23.480;2022-08-19T04:52:58;5.97;;;4.90;;
29478;SDS011;16437;41.836;23.480;2022-08-19T04:58:28;6.35;;;4.90;;
29478;SDS011;16437;41.836;23.480;2022-08-19T05:03:53;5.58;;;5.03;;
29478;SDS011;16437;41.836;23.480;2022-08-19T05:09:21;8.50;;;5.40;;
29478;SDS011;16437;41.836;23.480;2022-08-19T05:14:47;7.65;;;5.37;;
29478;SDS011;16437;41.836;23.480;2022-08-19T05:20:14;5.65;;;5.00;;
29478;SDS011;16437;41.836;23.480;2022-08-19T05:25:58;7.28;;;5.45;;
29478;SDS011;16437;41.836;23.480;2022-08-19T05:31:25;8.98;;;5.50;;
29478;SDS011;16437;41.836;23.480;2022-08-19T05:36:58;6.22;;;5.30;;
29478;SDS011;16437;41.836;23.480;2022-08-19T05:42:27;6.10;;;5.45;;
29478;SDS011;16437;41.836;23.480;2022-08-19T05:47:54;7.17;;;5.80;;
29478;SDS011;16437;41.836;23.480;2022-08-19T05:53:21;6.22;;;5.03;;
29478;SDS011;16437;41.836;23.480;2022-08-19T05:58:47;6.72;;;5.33;;
29478;SDS011;16437;41.836;23.480;2022-08-19T06:04:14;6.72;;;5.28;;
29478;SDS011;16437;41.836;23.480;2022-08-19T06:09:42;6.72;;;5.25;;
29478;SDS011;16437;41.836;23.480;2022-08-19T06:15:09;6.40;;;5.00;;
29478;SDS011;16437;41.836;23.480;2022-08-19T06:20:37;5.53;;;4.85;;
29478;SDS011;16437;41.836;23.480;2022-08-19T06:26:04;5.37;;;4.53;;
29478;SDS011;16437;41.836;23.480;2022-08-19T06:31:33;6.65;;;5.20;;
29478;SDS011;16437;41.836;23.480;2022-08-19T06:37:01;7.05;;;5.25;;
29478;SDS011;16437;41.836;23.480;2022-08-19T06:42:27;6.87;;;5.22;;
29478;SDS011;16437;41.836;23.480;2022-08-19T06:47:55;6.55;;;5.30;;
29478;SDS011;16437;41.836;23.480;2022-08-19T06:53:22;6.72;;;5.62;;
29478;SDS011;16437;41.836;23.480;2022-08-19T06:58:49;6.30;;;5.58;;
29478;SDS011;16437;41.836;23.480;2022-08-19T07:04:18;6.47;;;5.20;;
29478;SDS011;16437;41.836;23.480;2022-08-19T07:09:46;6.97;;;5.37;;
29478;SDS011;16437;41.836;23.480;2022-08-19T07:15:14;5.60;;;5.00;;
29478;SDS011;16437;41.836;23.480;2022-08-19T07:20:40;6.78;;;5.78;;
29478;SDS011;16437;41.836;23.480;2022-08-19T07:26:08;5.95;;;5.35;;
29478;SDS011;16437;41.836;23.480;2022-08-19T07:31:37;5.90;;;5.30;;
29478;SDS011;16437;41.836;23.480;2022-08-19T07:37:05;5.75;;;5.05;;
29478;SDS011;16437;41.836;23.480;2022-08-19T07:42:32;7.45;;;5.67;;
29478;SDS011;16437;41.836;23.480;2022-08-19T07:47:59;6.35;;;5.28;;
29478;SDS011;16437;41.836;23.480;2022-08-19T07:53:25;8.20;;;5.28;;
29478;SDS011;16437;41.836;23.480;2022-08-19T07:58:52;6.33;;;5.12;;
29478;SDS011;16437;41.836;23.480;2022-08-19T08:04:19;6.12;;;5.28;;
29478;SDS011;16437;41.836;23.480;2022-08-19T08:10:04;6.50;;;5.20;;
29478;SDS011;16437;41.836;23.480;2022-08-19T08:15:31;7.72;;;5.53;;
29478;SDS011;16437;41.836;23.480;2022-08-19T08:20:58;5.80;;;5.20;;
29478;SDS011;16437;41.836;23.480;2022-08-19T08:26:25;6.58;;;5.20;;
29478;SDS011;16437;41.836;23.480;2022-08-19T08:31:51;5.53;;;5.00;;
29478;SDS011;16437;41.836;23.480;2022-08-19T08:37:18;5.95;;;5.35;;
29478;SDS011;16437;41.836;23.480;2022-08-19T08:42:49;6.55;;;4.80;;
29478;SDS011;16437;41.836;23.480;2022-08-19T08:48:24;5.40;;;4.80;;
29478;SDS011;16437;41.836;23.480;2022-08-19T08:53:48;7.05;;;5.00;;
29478;SDS011;16437;41.836;23.480;2022-08-19T08:59:26;6.97;;;5.20;;
29478;SDS011;16437;41.836;23.480;2022-08-19T09:04:55;5.50;;;4.72;;
29478;SDS011;16437;41.836;23.480;2022-08-19T09:10:44;7.92;;;4.72;;
29478;SDS011;16437;41.836;23.480;2022-08-19T09:16:02;5.40;;;4.67;;
29478;SDS011;16437;41.836;23.480;2022-08-19T09:21:26;5.72;;;4.28;;
29478;SDS011;16437;41.836;23.480;2022-08-19T09:26:52;5.22;;;4.70;;
29478;SDS011;16437;41.836;23.480;2022-08-19T09:32:19;5.08;;;4.58;;
29478;SDS011;16437;41.836;23.480;2022-08-19T09:37:45;6.35;;;4.40;;
29478;SDS011;16437;41.836;23.480;2022-08-19T09:43:12;4.80;;;4.30;;
29478;SDS011;16437;41.836;23.480;2022-08-19T09:48:39;5.15;;;4.65;;
29478;SDS011;16437;41.836;23.480;2022-08-19T09:54:05;5.80;;;4.30;;
29478;SDS011;16437;41.836;23.480;2022-08-19T09:59:32;4.95;;;3.95;;
29478;SDS011;16437;41.836;23.480;2022-08-19T10:04:59;4.70;;;4.20;;
29478;SDS011;16437;41.836;23.480;2022-08-19T10:10:44;4.78;;;4.22;;
29478;SDS011;16437;41.836;23.480;2022-08-19T10:16:13;4.30;;;3.87;;
29478;SDS011;16437;41.836;23.480;2022-08-19T10:21:42;5.28;;;3.98;;
29478;SDS011;16437;41.836;23.480;2022-08-19T10:27:08;4.70;;;4.20;;
29478;SDS011;16437;41.836;23.480;2022-08-19T10:32:34;5.53;;;3.98;;
29478;SDS011;16437;41.836;23.480;2022-08-19T10:38:01;6.12;;;3.90;;
29478;SDS011;16437;41.836;23.480;2022-08-19T10:43:28;4.50;;;4.10;;
29478;SDS011;16437;41.836;23.480;2022-08-19T10:48:54;6.47;;;3.95;;
29478;SDS011;16437;41.836;23.480;2022-08-19T10:54:20;4.12;;;3.70;;
29478;SDS011;16437;41.836;23.480;2022-08-19T10:59:47;4.95;;;3.80;;
29478;SDS011;16437;41.836;23.480;2022-08-19T11:05:14;6.12;;;4.42;;
29478;SDS011;16437;41.836;23.480;2022-08-19T11:10:42;4.47;;;4.00;;
29478;SDS011;16437;41.836;23.480;2022-08-19T11:16:12;4.28;;;3.85;;
29478;SDS011;16437;41.836;23.480;2022-08-19T11:21:41;4.92;;;4.05;;
29478;SDS011;16437;41.836;23.480;2022-08-19T11:27:09;5.80;;;4.53;;
29478;SDS011;16437;41.836;23.480;2022-08-19T11:32:35;5.65;;;3.98;;
29478;SDS011;16437;41.836;23.480;2022-08-19T11:38:01;6.85;;;4.00;;
29478;SDS011;16437;41.836;23.480;2022-08-19T11:43:28;4.37;;;3.77;;
29478;SDS011;16437;41.836;23.480;2022-08-19T11:49:01;5.97;;;3.95;;
29478;SDS011;16437;41.836;23.480;2022-08-19T11:54:24;12.33;;;4.33;;
29478;SDS011;16437;41.836;23.480;2022-08-19T11:59:51;5.87;;;3.60;;
29478;SDS011;16437;41.836;23.480;2022-08-19T12:05:18;4.80;;;3.92;;
29478;SDS011;16437;41.836;23.480;2022-08-19T12:10:44;5.47;;;3.87;;
29478;SDS011;16437;41.836;23.480;2022-08-19T12:16:17;7.08;;;3.92;;
29478;SDS011;16437;41.836;23.480;2022-08-19T12:21:41;5.25;;;3.77;;
29478;SDS011;16437;41.836;23.480;2022-08-19T12:27:07;7.28;;;3.85;;
29478;SDS011;16437;41.836;23.480;2022-08-19T12:32:34;5.72;;;3.67;;
29478;SDS011;16437;41.836;23.480;2022-08-19T12:38:01;5.78;;;3.70;;
29478;SDS011;16437;41.836;23.480;2022-08-19T12:43:27;5.75;;;3.70;;
29478;SDS011;16437;41.836;23.480;2022-08-19T12:48:56;5.35;;;3.62;;
29478;SDS011;16437;41.836;23.480;2022-08-19T12:54:22;6.12;;;4.00;;
29478;SDS011;16437;41.836;23.480;2022-08-19T12:59:51;8.80;;;3.70;;
29478;SDS011;16437;41.836;23.480;2022-08-19T13:05:21;10.10;;;4.50;;
29478;SDS011;16437;41.836;23.480;2022-08-19T13:10:49;4.97;;;3.83;;
29478;SDS011;16437;41.836;23.480;2022-08-19T13:16:16;8.48;;;4.03;;
29478;SDS011;16437;41.836;23.480;2022-08-19T13:21:44;5.22;;;3.85;;
29478;SDS011;16437;41.836;23.480;2022-08-19T13:27:12;5.83;;;3.98;;
29478;SDS011;16437;41.836;23.480;2022-08-19T13:32:39;8.08;;;4.05;;
29478;SDS011;16437;41.836;23.480;2022-08-19T13:38:23;11.28;;;4.40;;
29478;SDS011;16437;41.836;23.480;2022-08-19T13:43:50;9.10;;;3.92;;
29478;SDS011;16437;41.836;23.480;2022-08-19T13:49:17;8.08;;;4.03;;
29478;SDS011;16437;41.836;23.480;2022-08-19T13:54:45;8.80;;;3.67;;
29478;SDS011;16437;41.836;23.480;2022-08-19T14:00:13;5.00;;;3.70;;
29478;SDS011;16437;41.836;23.480;2022-08-19T14:05:42;5.87;;;4.10;;
29478;SDS011;16437;41.836;23.480;2022-08-19T14:11:11;6.80;;;4.30;;
29478;SDS011;16437;41.836;23.480;2022-08-19T14:16:37;5.65;;;4.33;;
29478;SDS011;16437;41.836;23.480;2022-08-19T14:22:03;7.47;;;3.80;;
29478;SDS011;16437;41.836;23.480;2022-08-19T14:27:30;9.23;;;4.58;;
29478;SDS011;16437;41.836;23.480;2022-08-19T14:32:58;5.53;;;4.25;;
29478;SDS011;16437;41.836;23.480;2022-08-19T14:38:26;7.83;;;4.55;;
29478;SDS011;16437;41.836;23.480;2022-08-19T14:43:54;6.42;;;4.45;;
29478;SDS011;16437;41.836;23.480;2022-08-19T14:49:21;9.00;;;4.55;;
29478;SDS011;16437;41.836;23.480;2022-08-19T14:54:48;9.33;;;4.25;;
29478;SDS011;16437;41.836;23.480;2022-08-19T15:00:14;5.62;;;4.20;;
29478;SDS011;16437;41.836;23.480;2022-08-19T15:05:41;5.92;;;4.10;;
29478;SDS011;16437;41.836;23.480;2022-08-19T15:11:12;5.65;;;4.33;;
29478;SDS011;16437;41.836;23.480;2022-08-19T15:16:40;8.23;;;4.45;;
29478;SDS011;16437;41.836;23.480;2022-08-19T15:22:06;6.97;;;3.90;;
29478;SDS011;16437;41.836;23.480;2022-08-19T15:27:33;7.00;;;4.20;;
29478;SDS011;16437;41.836;23.480;2022-08-19T15:33:00;7.85;;;4.55;;
29478;SDS011;16437;41.836;23.480;2022-08-19T15:38:27;5.15;;;3.87;;
29478;SDS011;16437;41.836;23.480;2022-08-19T15:43:54;11.05;;;4.67;;
29478;SDS011;16437;41.836;23.480;2022-08-19T15:49:24;9.08;;;4.20;;
29478;SDS011;16437;41.836;23.480;2022-08-19T15:54:50;7.25;;;4.03;;
29478;SDS011;16437;41.836;23.480;2022-08-19T16:00:17;6.35;;;4.17;;
29478;SDS011;16437;41.836;23.480;2022-08-19T16:06:01;10.30;;;4.70;;
29478;SDS011;16437;41.836;23.480;2022-08-19T16:11:46;9.75;;;4.40;;
29478;SDS011;16437;41.836;23.480;2022-08-19T16:17:14;7.28;;;4.20;;
29478;SDS011;16437;41.836;23.480;2022-08-19T16:22:40;9.88;;;4.12;;
29478;SDS011;16437;41.836;23.480;2022-08-19T16:28:07;7.00;;;4.42;;
29478;SDS011;16437;41.836;23.480;2022-08-19T16:33:34;6.53;;;4.08;;
29478;SDS011;16437;41.836;23.480;2022-08-19T16:39:00;10.50;;;4.28;;
29478;SDS011;16437;41.836;23.480;2022-08-19T16:44:27;7.33;;;4.20;;
29478;SDS011;16437;41.836;23.480;2022-08-19T16:49:54;9.80;;;4.00;;
29478;SDS011;16437;41.836;23.480;2022-08-19T16:55:20;9.15;;;4.35;;
29478;SDS011;16437;41.836;23.480;2022-08-19T17:00:47;9.25;;;3.80;;
29478;SDS011;16437;41.836;23.480;2022-08-19T17:06:16;6.95;;;4.47;;
29478;SDS011;16437;41.836;23.480;2022-08-19T17:11:44;6.92;;;4.05;;
29478;SDS011;16437;41.836;23.480;2022-08-19T17:17:10;9.05;;;4.25;;
29478;SDS011;16437;41.836;23.480;2022-08-19T17:22:37;8.88;;;4.53;;
29478;SDS011;16437;41.836;23.480;2022-08-19T17:28:08;7.05;;;3.87;;
29478;SDS011;16437;41.836;23.480;2022-08-19T17:33:35;5.30;;;3.60;;
29478;SDS011;16437;41.836;23.480;2022-08-19T17:39:02;7.87;;;4.03;;
29478;SDS011;16437;41.836;23.480;2022-08-19T17:44:29;7.83;;;4.62;;
29478;SDS011;16437;41.836;23.480;2022-08-19T17:49:56;8.50;;;4.72;;
29478;SDS011;16437;41.836;23.480;2022-08-19T17:55:23;6.62;;;4.05;;
29478;SDS011;16437;41.836;23.480;2022-08-19T18:00:49;8.20;;;4.58;;
29478;SDS011;16437;41.836;23.480;2022-08-19T18:06:17;9.30;;;4.17;;
29478;SDS011;16437;41.836;23.480;2022-08-19T18:11:43;9.05;;;4.90;;
29478;SDS011;16437;41.836;23.480;2022-08-19T18:17:11;6.97;;;4.30;;
29478;SDS011;16437;41.836;23.480;2022-08-19T18:22:41;6.92;;;4.28;;
29478;SDS011;16437;41.836;23.480;2022-08-19T18:28:09;7.33;;;4.22;;
29478;SDS011;16437;41.836;23.480;2022-08-19T18:33:36;8.80;;;4.22;;
29478;SDS011;16437;41.836;23.480;2022-08-19T18:39:03;9.88;;;4.70;;
29478;SDS011;16437;41.836;23.480;2022-08-19T18:44:48;6.62;;;4.30;;
29478;SDS011;16437;41.836;23.480;2022-08-19T18:50:32;8.85;;;4.37;;
29478;SDS011;16437;41.836;23.480;2022-08-19T18:56:00;8.68;;;4.50;;
29478;SDS011;16437;41.836;23.480;2022-08-19T19:01:31;6.17;;;4.30;;
29478;SDS011;16437;41.836;23.480;2022-08-19T19:07:06;7.72;;;4.10;;
29478;SDS011;16437;41.836;23.480;2022-08-19T19:12:40;10.72;;;4.45;;
29478;SDS011;16437;41.836;23.480;2022-08-19T19:18:08;9.80;;;4.75;;
29478;SDS011;16437;41.836;23.480;2022-08-19T19:23:37;8.98;;;4.50;;
29478;SDS011;16437;41.836;23.480;2022-08-19T19:29:04;5.62;;;4.30;;
29478;SDS011;16437;41.836;23.480;2022-08-19T19:34:31;10.40;;;4.55;;
29478;SDS011;16437;41.836;23.480;2022-08-19T19:39:58;8.03;;;4.60;;
29478;SDS011;16437;41.836;23.480;2022-08-19T19:45:24;6.47;;;4.33;;
29478;SDS011;16437;41.836;23.480;2022-08-19T19:50:52;6.47;;;4.50;;
29478;SDS011;16437;41.836;23.480;2022-08-19T19:56:19;4.87;;;4.08;;
29478;SDS011;16437;41.836;23.480;2022-08-19T20:01:47;6.65;;;4.40;;
29478;SDS011;16437;41.836;23.480;2022-08-19T20:07:15;7.33;;;4.78;;
29478;SDS011;16437;41.836;23.480;2022-08-19T20:12:41;6.42;;;4.67;;
29478;SDS011;16437;41.836;23.480;2022-08-19T20:18:08;5.95;;;4.62;;
29478;SDS011;16437;41.836;23.480;2022-08-19T20:23:37;6.20;;;4.20;;
29478;SDS011;16437;41.836;23.480;2022-08-19T20:29:04;7.15;;;4.62;;
29478;SDS011;16437;41.836;23.480;2022-08-19T20:34:31;7.37;;;4.45;;
29478;SDS011;16437;41.836;23.480;2022-08-19T20:39:57;6.05;;;4.50;;
29478;SDS011;16437;41.836;23.480;2022-08-19T20:45:24;8.90;;;4.37;;
29478;SDS011;16437;41.836;23.480;2022-08-19T20:50:50;6.62;;;4.37;;
29478;SDS011;16437;41.836;23.480;2022-08-19T20:56:19;6.17;;;4.40;;
29478;SDS011;16437;41.836;23.480;2022-08-19T21:01:46;7.03;;;4.62;;
29478;SDS011;16437;41.836;23.480;2022-08-19T21:07:14;5.08;;;4.20;;
29478;SDS011;16437;41.836;23.480;2022-08-19T21:12:41;5.97;;;4.35;;
29478;SDS011;16437;41.836;23.480;2022-08-19T21:18:12;6.05;;;4.60;;
29478;SDS011;16437;41.836;23.480;2022-08-19T21:23:40;6.70;;;4.67;;
29478;SDS011;16437;41.836;23.480;2022-08-19T21:29:06;6.83;;;4.47;;
29478;SDS011;16437;41.836;23.480;2022-08-19T21:34:33;6.22;;;4.25;;
29478;SDS011;16437;41.836;23.480;2022-08-19T21:40:00;5.33;;;4.05;;
29478;SDS011;16437;41.836;23.480;2022-08-19T21:45:28;8.43;;;4.50;;
29478;SDS011;16437;41.836;23.480;2022-08-19T21:50:55;6.05;;;4.28;;
29478;SDS011;16437;41.836;23.480;2022-08-19T21:56:21;4.67;;;4.08;;
29478;SDS011;16437;41.836;23.480;2022-08-19T22:01:48;5.55;;;4.15;;
29478;SDS011;16437;41.836;23.480;2022-08-19T22:07:16;6.30;;;4.40;;
29478;SDS011;16437;41.836;23.480;2022-08-19T22:12:43;5.58;;;4.17;;
29478;SDS011;16437;41.836;23.480;2022-08-19T22:18:10;6.85;;;4.87;;
29478;SDS011;16437;41.836;23.480;2022-08-19T22:23:36;7.00;;;4.30;;
29478;SDS011;16437;41.836;23.480;2022-08-19T22:29:04;5.65;;;4.65;;
29478;SDS011;16437;41.836;23.480;2022-08-19T22:34:30;7.83;;;4.67;;
29478;SDS011;16437;41.836;23.480;2022-08-19T22:39:57;7.53;;;4.12;;
29478;SDS011;16437;41.836;23.480;2022-08-19T22:45:25;5.65;;;4.33;;
29478;SDS011;16437;41.836;23.480;2022-08-19T22:50:52;7.45;;;4.30;;
29478;SDS011;16437;41.836;23.480;2022-08-19T22:56:38;5.05;;;4.12;;
29478;SDS011;16437;41.836;23.480;2022-08-19T23:02:05;6.10;;;4.22;;
29478;SDS011;16437;41.836;23.480;2022-08-19T23:07:33;5.92;;;4.08;;
29478;SDS011;16437;41.836;23.480;2022-08-19T23:13:00;5.10;;;4.15;;
29478;SDS011;16437;41.836;23.480;2022-08-19T23:18:27;4.95;;;4.10;;
29478;SDS011;16437;41.836;23.480;2022-08-19T23:23:53;4.62;;;3.95;;
29478;SDS011;16437;41.836;23.480;2022-08-19T23:29:20;6.08;;;4.40;;
29478;SDS011;16437;41.836;23.480;2022-08-19T23:35:05;4.80;;;4.12;;
29478;SDS011;16437;41.836;23.480;2022-08-19T23:40:32;6.50;;;4.22;;
29478;SDS011;16437;41.836;23.480;2022-08-19T23:46:00;6.53;;;4.53;;
29478;SDS011;16437;41.836;23.480;2022-08-19T23:51:29;6.10;;;4.85;;
29478;SDS011;16437;41.836;23.480;2022-08-19T23:56:56;5.92;;;4.12;;
